createdAt,value
2023-03-04T00:00:11.468Z,11.33
2023-03-04T00:02:41.304Z,7.13
2023-03-04T00:05:17.251Z,8.47
2023-03-04T00:07:51.290Z,9.37
2023-03-04T00:10:21.332Z,9.40
2023-03-04T00:12:51.140Z,8.33
2023-03-04T00:15:20.937Z,9.70
2023-03-04T00:17:50.738Z,10.60
2023-03-04T00:20:20.979Z,11.27
2023-03-04T00:22:53.466Z,14.03
2023-03-04T00:25:23.286Z,10.93
2023-03-04T00:27:55.382Z,11.03
2023-03-04T00:30:25.215Z,9.93
2023-03-04T00:32:54.981Z,9.17
2023-03-04T00:35:24.783Z,4.93
2023-03-04T00:37:57.261Z,13.33
2023-03-04T00:40:27.921Z,16.00
2023-03-04T00:42:57.895Z,10.93
2023-03-04T00:45:27.682Z,8.93
2023-03-04T00:47:57.485Z,9.30
2023-03-04T00:50:27.282Z,10.13
2023-03-04T00:52:59.677Z,9.33
2023-03-04T00:55:29.514Z,8.57
2023-03-04T00:57:59.332Z,10.20
2023-03-04T01:00:29.136Z,9.97
2023-03-04T01:02:58.953Z,7.73
2023-03-04T01:05:28.797Z,10.53
2023-03-04T01:08:03.546Z,9.00
2023-03-04T01:10:33.753Z,10.20
2023-03-04T01:13:03.596Z,8.70
2023-03-04T01:15:33.418Z,6.43
2023-03-04T01:18:03.269Z,8.00
2023-03-04T01:20:33.179Z,12.20
2023-03-04T01:23:05.572Z,10.30
2023-03-04T01:25:35.427Z,9.80
2023-03-04T01:28:05.339Z,11.60
2023-03-04T01:30:35.114Z,9.43
2023-03-04T01:33:04.906Z,6.27
2023-03-04T01:35:34.713Z,12.40
2023-03-04T01:38:07.254Z,7.60
2023-03-04T01:40:37.207Z,10.03
2023-03-04T01:43:07.185Z,6.80
2023-03-04T01:45:40.190Z,7.27
2023-03-04T01:48:12.985Z,9.60
2023-03-04T01:50:42.784Z,9.63
2023-03-04T01:53:22.672Z,10.63
2023-03-04T01:55:53.113Z,12.17
2023-03-04T01:58:22.996Z,6.43
2023-03-04T02:00:52.769Z,4.83
2023-03-04T02:03:23.136Z,10.07
2023-03-04T02:05:56.319Z,6.77
2023-03-04T02:08:29.637Z,5.60
2023-03-04T02:10:59.791Z,7.40
2023-03-04T02:13:29.554Z,8.73
2023-03-04T02:15:59.417Z,10.40
2023-03-04T02:18:29.175Z,7.90
2023-03-04T02:21:06.237Z,6.03
2023-03-04T02:23:43.721Z,8.20
2023-03-04T02:26:21.609Z,5.43
2023-03-04T02:28:54.510Z,8.20
2023-03-04T02:31:28.982Z,8.27
2023-03-04T02:34:01.534Z,8.27
2023-03-04T02:36:32.470Z,7.90
2023-03-04T02:39:06.987Z,7.57
2023-03-04T02:41:39.690Z,8.40
2023-03-04T02:44:20.437Z,8.60
2023-03-04T02:46:50.652Z,6.67
2023-03-04T02:49:21.164Z,12.13
2023-03-04T02:51:54.175Z,8.60
2023-03-04T02:54:26.416Z,7.83
2023-03-04T02:57:01.679Z,5.80
2023-03-04T02:59:31.591Z,5.27
2023-03-04T03:02:01.684Z,9.37
2023-03-04T03:04:31.985Z,6.47
2023-03-04T03:07:01.958Z,8.43
2023-03-04T03:09:32.746Z,12.37
2023-03-04T03:12:05.169Z,5.83
2023-03-04T03:14:34.986Z,9.90
2023-03-04T03:17:04.842Z,8.67
2023-03-04T03:19:34.673Z,7.37
2023-03-04T03:22:05.254Z,7.27
2023-03-04T03:24:35.078Z,9.80
2023-03-04T03:27:07.537Z,9.57
2023-03-04T03:29:37.302Z,7.07
2023-03-04T03:32:07.573Z,7.03
2023-03-04T03:34:37.517Z,8.90
2023-03-04T03:37:07.305Z,7.77
2023-03-04T03:39:37.170Z,8.20
2023-03-04T03:42:11.910Z,7.00
2023-03-04T03:44:41.672Z,6.90
2023-03-04T03:47:11.435Z,3.50
2023-03-04T03:49:41.276Z,6.43
2023-03-04T03:52:11.497Z,4.93
2023-03-04T03:54:41.278Z,5.13
2023-03-04T03:57:14.166Z,5.50
2023-03-04T03:59:44.024Z,7.17
2023-03-04T04:02:13.898Z,6.73
2023-03-04T04:04:43.839Z,4.80
2023-03-04T04:07:14.537Z,5.37
2023-03-04T04:09:44.307Z,8.47
2023-03-04T04:12:18.365Z,7.57
2023-03-04T04:14:48.161Z,3.93
2023-03-04T04:17:18.016Z,5.87
2023-03-04T04:19:47.829Z,8.00
2023-03-04T04:22:22.415Z,7.80
2023-03-04T04:24:52.308Z,10.73
2023-03-04T04:27:25.475Z,8.40
2023-03-04T04:29:55.315Z,9.13
2023-03-04T04:32:25.232Z,6.63
2023-03-04T04:34:55.110Z,6.03
2023-03-04T04:37:24.924Z,8.93
2023-03-04T04:39:55.691Z,7.10
2023-03-04T04:42:28.574Z,5.67
2023-03-04T04:44:58.857Z,7.07
2023-03-04T04:47:28.779Z,8.47
2023-03-04T04:49:58.627Z,7.60
2023-03-04T04:52:28.508Z,12.03
2023-03-04T04:54:58.551Z,6.73
2023-03-04T04:57:31.060Z,10.30
2023-03-04T05:00:00.807Z,7.33
2023-03-04T05:02:31.362Z,10.33
2023-03-04T05:05:01.136Z,9.00
2023-03-04T05:07:30.931Z,9.60
2023-03-04T05:10:00.726Z,8.90
2023-03-04T05:12:33.108Z,8.53
2023-03-04T05:15:06.049Z,8.77
2023-03-04T05:17:35.807Z,5.40
2023-03-04T05:20:07.351Z,13.07
2023-03-04T05:22:37.219Z,8.20
2023-03-04T05:25:07.320Z,8.73
2023-03-04T05:27:39.687Z,12.97
2023-03-04T05:30:11.112Z,11.60
2023-03-04T05:32:41.743Z,8.27
2023-03-04T05:35:12.585Z,5.57
2023-03-04T05:37:42.403Z,12.77
2023-03-04T05:40:14.017Z,6.53
2023-03-04T05:42:46.423Z,17.60
2023-03-04T05:45:17.460Z,10.17
2023-03-04T05:47:47.361Z,6.87
2023-03-04T05:50:17.160Z,9.80
2023-03-04T05:52:47.053Z,7.97
2023-03-04T05:55:17.240Z,5.50
2023-03-04T05:57:49.955Z,9.47
2023-03-04T06:00:21.171Z,8.93
2023-03-04T06:02:51.028Z,7.60
2023-03-04T06:05:21.013Z,10.50
2023-03-04T06:07:54.607Z,9.77
2023-03-04T06:10:24.480Z,7.93
2023-03-04T06:12:56.854Z,9.43
2023-03-04T06:15:26.639Z,6.50
2023-03-04T06:17:56.410Z,6.80
2023-03-04T06:20:26.518Z,6.30
2023-03-04T06:22:56.370Z,6.97
2023-03-04T06:25:26.239Z,6.60
2023-03-04T06:27:58.855Z,10.17
2023-03-04T06:30:28.650Z,7.80
2023-03-04T06:32:58.500Z,8.17
2023-03-04T06:35:28.407Z,5.80
2023-03-04T06:37:58.245Z,6.33
2023-03-04T06:40:28.079Z,6.37
2023-03-04T06:43:00.547Z,10.97
2023-03-04T06:45:30.456Z,8.97
2023-03-04T06:48:00.271Z,7.17
2023-03-04T06:50:30.150Z,10.07
2023-03-04T06:53:00.143Z,8.30
2023-03-04T06:55:30.017Z,11.03
2023-03-04T06:58:04.046Z,11.03
2023-03-04T07:00:34.075Z,10.40
2023-03-04T07:03:06.759Z,7.83
2023-03-04T07:05:37.346Z,11.40
2023-03-04T07:08:07.720Z,7.43
2023-03-04T07:10:37.984Z,11.03
2023-03-04T07:13:10.366Z,12.87
2023-03-04T07:15:40.821Z,9.00
2023-03-04T07:18:10.868Z,10.33
2023-03-04T07:20:40.791Z,13.40
2023-03-04T07:23:10.763Z,15.20
2023-03-04T07:25:40.673Z,16.87
2023-03-04T07:28:13.151Z,12.53
2023-03-04T07:30:42.994Z,13.77
2023-03-04T07:33:13.124Z,12.20
2023-03-04T07:35:44.952Z,17.83
2023-03-04T07:38:14.841Z,17.50
2023-03-04T07:40:44.719Z,16.77
2023-03-04T07:43:17.342Z,15.00
2023-03-04T07:45:47.301Z,17.33
2023-03-04T07:48:17.227Z,11.83
2023-03-04T07:50:47.146Z,17.57
2023-03-04T07:53:17.022Z,15.13
2023-03-04T07:55:46.932Z,18.77
2023-03-04T07:58:20.138Z,13.93
2023-03-04T08:00:49.990Z,13.43
2023-03-04T08:03:19.903Z,12.93
2023-03-04T08:05:54.344Z,17.03
2023-03-04T08:08:24.275Z,12.47
2023-03-04T08:10:54.276Z,16.93
2023-03-04T08:13:26.707Z,13.87
2023-03-04T08:15:58.929Z,13.63
2023-03-04T08:18:29.211Z,17.30
2023-03-04T08:20:59.092Z,16.33
2023-03-04T08:23:28.912Z,14.23
2023-03-04T08:25:58.724Z,18.57
2023-03-04T08:28:31.281Z,20.73
2023-03-04T08:31:01.238Z,21.10
2023-03-04T08:33:31.215Z,18.90
2023-03-04T08:36:04.064Z,15.57
2023-03-04T08:38:34.748Z,15.17
2023-03-04T08:41:05.136Z,19.67
2023-03-04T08:43:37.736Z,11.17
2023-03-04T08:46:08.434Z,12.13
2023-03-04T08:48:40.568Z,14.57
2023-03-04T08:51:11.929Z,13.20
2023-03-04T08:53:42.397Z,15.60
2023-03-04T08:56:12.880Z,9.93
2023-03-04T08:58:47.824Z,11.77
2023-03-04T09:01:18.394Z,13.60
2023-03-04T09:03:48.400Z,16.80
2023-03-04T09:06:21.950Z,12.10
2023-03-04T09:08:54.126Z,9.00
2023-03-04T09:11:23.910Z,11.90
2023-03-04T09:13:56.454Z,8.43
2023-03-04T09:16:26.591Z,12.10
2023-03-04T09:18:56.437Z,12.27
2023-03-04T09:21:26.226Z,8.67
2023-03-04T09:23:56.017Z,9.83
2023-03-04T09:26:27.719Z,9.07
2023-03-04T09:29:02.464Z,8.07
2023-03-04T09:31:33.168Z,6.17
2023-03-04T09:34:03.705Z,4.80
2023-03-04T09:36:33.545Z,9.23
2023-03-04T09:39:04.437Z,7.67
2023-03-04T09:41:40.094Z,7.63
2023-03-04T09:44:19.413Z,8.27
2023-03-04T09:46:52.191Z,12.00
2023-03-04T09:49:24.155Z,11.23
2023-03-04T09:52:04.273Z,14.57
2023-03-04T09:54:53.480Z,13.93
2023-03-04T09:57:31.107Z,15.90
2023-03-04T10:00:20.028Z,13.73
2023-03-04T10:03:08.350Z,14.40
2023-03-04T10:05:44.274Z,10.30
2023-03-04T10:08:38.408Z,13.67
2023-03-04T10:11:17.987Z,13.53
2023-03-04T10:13:57.390Z,12.43
2023-03-04T10:16:35.602Z,12.33
2023-03-04T10:19:26.008Z,12.57
2023-03-04T10:21:55.917Z,14.97
2023-03-04T10:24:29.885Z,11.30
2023-03-04T10:27:05.654Z,14.57
2023-03-04T10:29:37.002Z,13.17
2023-03-04T10:32:12.185Z,14.03
2023-03-04T10:34:42.038Z,13.40
2023-03-04T10:37:12.765Z,14.83
2023-03-04T10:39:43.660Z,20.77
2023-03-04T10:42:32.682Z,8.57
2023-03-04T10:45:05.078Z,11.07
2023-03-04T10:47:39.229Z,10.77
2023-03-04T10:50:26.758Z,8.83
2023-03-04T10:52:58.140Z,15.23
2023-03-04T10:55:31.596Z,15.97
2023-03-04T10:58:07.286Z,13.47
2023-03-04T11:00:38.966Z,12.50
2023-03-04T11:03:38.402Z,11.13
2023-03-04T11:06:20.204Z,8.90
2023-03-04T11:08:57.810Z,11.63
2023-03-04T11:11:34.886Z,14.17
2023-03-04T11:14:14.018Z,15.50
2023-03-04T11:16:43.971Z,14.13
2023-03-04T11:19:21.218Z,21.57
2023-03-04T11:21:52.436Z,17.90
2023-03-04T11:24:29.669Z,14.53
2023-03-04T11:27:06.360Z,13.17
2023-03-04T11:29:44.968Z,14.50
2023-03-04T11:32:18.383Z,11.20
2023-03-04T11:34:55.034Z,17.70
2023-03-04T11:37:32.517Z,17.87
2023-03-04T11:40:07.393Z,15.23
2023-03-04T11:42:43.305Z,19.30
2023-03-04T11:45:28.227Z,18.73
2023-03-04T11:48:11.958Z,12.87
2023-03-04T11:50:53.401Z,15.03
2023-03-04T11:53:36.601Z,12.90
2023-03-04T11:56:21.713Z,15.50
2023-03-04T11:59:08.296Z,13.37
2023-03-04T12:01:48.755Z,13.07
2023-03-04T12:04:37.981Z,14.80
2023-03-04T12:07:24.781Z,11.57
2023-03-04T12:10:08.552Z,6.70
2023-03-04T12:12:57.724Z,10.33
2023-03-04T12:15:34.036Z,9.53
2023-03-04T12:18:19.589Z,11.73
2023-03-04T12:21:05.637Z,9.47
2023-03-04T12:24:12.224Z,19.57
2023-03-04T12:26:46.204Z,14.40
2023-03-04T12:29:23.197Z,12.27
2023-03-04T12:31:59.570Z,12.30
2023-03-04T12:34:55.486Z,16.23
2023-03-04T12:37:48.070Z,12.20
2023-03-04T12:40:33.076Z,6.60
2023-03-04T12:43:29.860Z,12.47
2023-03-04T12:46:10.346Z,10.80
2023-03-04T12:48:44.244Z,14.47
2023-03-04T12:51:26.909Z,15.30
2023-03-04T12:54:08.926Z,10.13
2023-03-04T12:56:49.223Z,13.40
2023-03-04T12:59:23.060Z,11.07
2023-03-04T13:02:01.999Z,8.10
2023-03-04T13:04:43.064Z,10.30
2023-03-04T13:07:20.916Z,9.07
2023-03-04T13:09:57.374Z,8.80
2023-03-04T13:12:29.895Z,10.27
2023-03-04T13:15:21.280Z,10.63
2023-03-04T13:17:52.182Z,9.50
2023-03-04T13:20:28.323Z,12.50
2023-03-04T13:22:59.505Z,12.17
2023-03-04T13:25:35.092Z,13.23
2023-03-04T13:28:35.276Z,11.37
2023-03-04T13:31:21.188Z,11.00
2023-03-04T13:34:00.150Z,10.33
2023-03-04T13:37:03.773Z,9.57
2023-03-04T13:39:34.869Z,9.07
2023-03-04T13:42:08.237Z,8.40
2023-03-04T13:45:00.381Z,7.67
2023-03-04T13:47:44.023Z,15.40
2023-03-04T13:50:30.414Z,9.77
2023-03-04T13:53:04.609Z,11.90
2023-03-04T13:55:37.903Z,8.53
2023-03-04T13:58:22.847Z,8.93
2023-03-04T14:00:57.207Z,11.67
2023-03-04T14:03:29.780Z,9.97
2023-03-04T14:06:20.096Z,9.87
2023-03-04T14:08:51.019Z,10.97
2023-03-04T14:11:29.634Z,10.93
2023-03-04T14:14:02.693Z,12.40
2023-03-04T14:16:40.997Z,8.40
2023-03-04T14:19:18.916Z,12.17
2023-03-04T14:21:49.839Z,12.37
2023-03-04T14:24:22.577Z,9.20
2023-03-04T14:26:53.376Z,14.37
2023-03-04T14:29:27.700Z,11.17
2023-03-04T14:32:02.988Z,11.77
2023-03-04T14:34:35.918Z,9.80
2023-03-04T14:37:06.756Z,10.70
2023-03-04T14:39:38.124Z,14.20
2023-03-04T14:42:13.555Z,14.97
2023-03-04T14:44:48.772Z,14.17
2023-03-04T14:47:27.236Z,10.83
2023-03-04T14:49:57.423Z,14.17
2023-03-04T14:52:39.608Z,8.67
2023-03-04T14:55:22.474Z,10.40
2023-03-04T14:57:59.244Z,13.77
2023-03-04T15:00:32.646Z,17.53
2023-03-04T15:03:06.733Z,13.60
2023-03-04T15:05:39.242Z,9.43
2023-03-04T15:08:23.864Z,9.03
2023-03-04T15:10:59.223Z,7.73
2023-03-04T15:13:41.089Z,9.87
2023-03-04T15:16:12.259Z,14.83
2023-03-04T15:18:57.414Z,11.20
2023-03-04T15:21:40.269Z,10.57
2023-03-04T15:24:13.692Z,13.73
2023-03-04T15:26:46.146Z,13.80
2023-03-04T15:29:18.157Z,10.87
2023-03-04T15:31:48.963Z,10.37
2023-03-04T15:34:23.333Z,8.50
2023-03-04T15:36:55.848Z,9.40
2023-03-04T15:39:27.735Z,8.87
2023-03-04T15:42:01.477Z,11.60
2023-03-04T15:44:31.278Z,10.00
2023-03-04T15:47:01.085Z,10.87
2023-03-04T15:49:33.511Z,11.63
2023-03-04T15:52:03.834Z,13.23
2023-03-04T15:54:33.807Z,11.17
2023-03-04T15:57:26.239Z,12.30
2023-03-04T15:59:56.403Z,15.83
2023-03-04T16:02:28.928Z,12.93
2023-03-04T16:05:01.398Z,13.47
2023-03-04T16:07:36.690Z,10.13
2023-03-04T16:10:14.881Z,9.83
2023-03-04T16:12:44.799Z,11.17
2023-03-04T16:15:19.483Z,8.70
2023-03-04T16:17:49.735Z,8.00
2023-03-04T16:20:24.850Z,9.03
2023-03-04T16:22:58.342Z,11.63
2023-03-04T16:25:28.788Z,10.87
2023-03-04T16:28:03.569Z,9.10
2023-03-04T16:30:33.972Z,8.27
2023-03-04T16:33:03.976Z,11.57
2023-03-04T16:35:39.586Z,6.50
2023-03-04T16:38:20.915Z,9.07
2023-03-04T16:40:50.886Z,10.13
2023-03-04T16:43:20.751Z,6.43
2023-03-04T16:45:51.006Z,7.53
2023-03-04T16:48:20.978Z,8.07
2023-03-04T16:50:53.458Z,7.17
2023-03-04T16:53:37.356Z,7.77
2023-03-04T16:56:09.828Z,9.30
2023-03-04T16:58:39.677Z,8.07
2023-03-04T17:01:10.269Z,8.97
2023-03-04T17:03:40.131Z,9.47
2023-03-04T17:06:14.312Z,6.40
2023-03-04T17:08:46.066Z,6.77
2023-03-04T17:11:19.135Z,9.47
2023-03-04T17:13:49.443Z,12.60
2023-03-04T17:16:24.148Z,10.00
2023-03-04T17:18:54.110Z,7.53
2023-03-04T17:21:29.193Z,8.33
2023-03-04T17:24:03.398Z,6.73
2023-03-04T17:26:34.674Z,11.03
2023-03-04T17:29:06.135Z,6.03
2023-03-04T17:31:36.384Z,14.27
2023-03-04T17:34:06.546Z,8.77
2023-03-04T17:36:39.369Z,8.53
2023-03-04T17:39:16.256Z,8.80
2023-03-04T17:41:46.046Z,11.30
2023-03-04T17:44:17.536Z,9.03
2023-03-04T17:46:49.926Z,6.07
2023-03-04T17:49:20.255Z,5.03
2023-03-04T17:51:53.343Z,7.10
2023-03-04T17:54:23.269Z,7.30
2023-03-04T17:56:53.109Z,9.63
2023-03-04T17:59:23.500Z,7.57
2023-03-04T18:01:54.361Z,8.43
2023-03-04T18:04:25.017Z,8.63
2023-03-04T18:07:02.125Z,11.43
2023-03-04T18:09:32.055Z,11.10
2023-03-04T18:12:02.861Z,8.30
2023-03-04T18:14:32.697Z,14.20
2023-03-04T18:17:02.593Z,7.67
2023-03-04T18:19:32.772Z,8.50
2023-03-04T18:22:07.828Z,5.17
2023-03-04T18:24:39.866Z,8.63
2023-03-04T18:27:12.511Z,6.83
2023-03-04T18:29:42.641Z,4.07
2023-03-04T18:32:12.644Z,7.40
2023-03-04T18:34:42.534Z,7.07
2023-03-04T18:37:14.992Z,8.07
2023-03-04T18:39:49.901Z,8.73
2023-03-04T18:43:10.602Z,9.90
2023-03-04T18:46:38.419Z,9.63
2023-03-04T18:49:32.168Z,7.17
2023-03-04T19:38:52.556Z,6.70
2023-03-04T19:41:32.486Z,4.13
2023-03-04T19:55:18.542Z,5.07
2023-03-04T19:58:52.710Z,3.80
2023-03-04T20:05:44.343Z,6.90
2023-03-04T20:08:26.725Z,11.60
2023-03-04T20:47:09.213Z,4.72
2023-03-04T20:49:39.153Z,12.37
2023-03-04T20:52:09.883Z,6.40
2023-03-04T20:54:41.928Z,7.73
2023-03-04T20:57:11.918Z,6.43
2023-03-04T20:59:43.032Z,5.77
2023-03-04T21:02:19.945Z,8.10
2023-03-04T21:04:55.897Z,7.33
2023-03-04T21:07:47.713Z,9.10
2023-03-04T21:10:28.964Z,5.17
2023-03-04T21:13:02.975Z,5.07
2023-03-04T21:15:44.438Z,6.23
2023-03-04T21:18:17.072Z,4.87
2023-03-04T21:20:48.660Z,8.27
2023-03-04T21:23:25.879Z,4.97
2023-03-04T21:25:56.087Z,5.73
2023-03-04T21:28:26.016Z,3.73
2023-03-04T21:30:56.045Z,4.43
2023-03-04T21:33:49.096Z,2.83
2023-03-04T21:36:29.237Z,8.03
2023-03-04T21:38:59.445Z,5.87
2023-03-04T21:41:31.247Z,5.80
2023-03-04T21:44:01.261Z,4.80
2023-03-04T21:46:31.265Z,4.00
2023-03-04T21:49:05.603Z,2.77
2023-03-04T21:51:39.610Z,4.57
2023-03-04T21:54:09.869Z,6.23
2023-03-04T21:56:39.966Z,3.23
2023-03-04T21:59:11.457Z,2.73
2023-03-04T22:01:41.559Z,4.10
2023-03-04T22:04:13.973Z,10.90
2023-03-04T22:06:43.916Z,6.33
2023-03-04T22:09:16.963Z,7.20
2023-03-04T22:11:46.796Z,8.13
2023-03-04T22:14:16.710Z,6.60
2023-03-04T22:16:55.261Z,7.10
2023-03-04T22:19:30.418Z,3.20
2023-03-04T22:22:00.479Z,4.30
2023-03-04T22:24:30.472Z,5.03
2023-03-04T22:27:00.778Z,4.73
2023-03-04T22:29:30.648Z,4.63
2023-03-04T22:32:00.573Z,6.77
2023-03-04T22:34:33.012Z,4.90
2023-03-04T22:37:02.946Z,7.67
2023-03-04T22:39:32.760Z,5.83
2023-03-04T22:42:02.646Z,5.70
2023-03-04T22:44:32.596Z,6.20
2023-03-04T22:47:04.639Z,6.40
2023-03-04T22:49:38.001Z,4.90
2023-03-04T22:52:09.376Z,4.73
2023-03-04T22:54:39.130Z,3.40
2023-03-04T22:57:08.982Z,6.33
2023-03-04T22:59:39.264Z,6.50
2023-03-04T23:02:09.304Z,5.60
2023-03-04T23:04:43.989Z,5.20
2023-03-04T23:07:13.761Z,6.97
2023-03-04T23:09:43.536Z,4.30
2023-03-04T23:12:13.472Z,6.33
2023-03-04T23:14:46.389Z,6.23
2023-03-04T23:17:16.219Z,5.80
2023-03-04T23:19:48.598Z,8.77
2023-03-04T23:22:18.363Z,4.77
2023-03-04T23:24:48.165Z,4.00
2023-03-04T23:27:17.988Z,4.30
2023-03-04T23:29:47.836Z,9.73
2023-03-04T23:32:17.664Z,6.63
2023-03-04T23:34:53.345Z,3.07
2023-03-04T23:37:25.549Z,4.13
2023-03-04T23:39:55.304Z,5.13
2023-03-04T23:42:25.055Z,4.73
2023-03-04T23:44:54.851Z,3.50
2023-03-04T23:47:25.594Z,5.23
2023-03-04T23:50:11.134Z,7.53
2023-03-04T23:52:41.086Z,3.53
2023-03-04T23:55:13.319Z,3.40
2023-03-04T23:57:43.187Z,2.67
